createdAt,value
2023-03-08T00:00:15.231Z,100.00
2023-03-08T00:02:41.959Z,99.25
2023-03-08T00:05:09.229Z,97.65
2023-03-08T00:07:37.328Z,95.70
2023-03-08T00:10:05.640Z,97.37
2023-03-08T00:12:32.323Z,92.99
2023-03-08T00:14:59.089Z,92.30
2023-03-08T00:17:26.317Z,93.18
2023-03-08T00:19:52.996Z,95.25
2023-03-08T00:22:19.772Z,97.73
2023-03-08T00:24:46.883Z,97.69
2023-03-08T00:27:13.444Z,99.04
2023-03-08T00:29:40.055Z,96.03
2023-03-08T00:32:06.952Z,96.66
2023-03-08T00:34:33.572Z,96.21
2023-03-08T00:37:00.120Z,96.70
2023-03-08T00:39:26.691Z,98.00
2023-03-08T00:41:53.406Z,97.20
2023-03-08T00:44:20.096Z,98.39
2023-03-08T00:46:46.798Z,93.16
2023-03-08T00:49:13.486Z,92.04
2023-03-08T00:51:40.073Z,91.78
2023-03-08T00:54:06.769Z,92.62
2023-03-08T00:56:33.355Z,94.74
2023-03-08T00:59:00.251Z,95.59
2023-03-08T01:01:27.136Z,95.88
2023-03-08T01:03:53.753Z,99.45
2023-03-08T01:06:20.425Z,100.00
2023-03-08T01:08:47.111Z,99.02
2023-03-08T01:11:22.717Z,98.81
2023-03-08T01:13:50.632Z,98.78
2023-03-08T01:16:20.509Z,99.05
2023-03-08T01:18:47.320Z,98.04
2023-03-08T01:21:13.967Z,97.67
2023-03-08T01:23:42.714Z,97.40
2023-03-08T01:26:14.844Z,99.11
2023-03-08T01:28:41.903Z,100.00
2023-03-08T01:31:18.115Z,100.00
2023-03-08T01:33:45.633Z,100.00
2023-03-08T01:36:17.963Z,99.10
2023-03-08T01:38:45.246Z,98.19
2023-03-08T01:41:27.142Z,99.14
2023-03-08T01:43:54.477Z,98.84
2023-03-08T01:46:28.553Z,100.00
2023-03-08T01:48:59.665Z,100.00
2023-03-08T01:51:48.034Z,100.00
2023-03-08T01:54:17.771Z,100.00
2023-03-08T01:56:46.557Z,100.00
2023-03-08T01:59:14.542Z,100.00
2023-03-08T02:01:41.952Z,100.00
2023-03-08T02:04:10.276Z,100.00
2023-03-08T02:06:36.907Z,100.00
2023-03-08T02:09:05.288Z,100.00
2023-03-08T02:11:38.742Z,100.00
2023-03-08T02:14:06.251Z,100.00
2023-03-08T02:16:33.081Z,100.00
2023-03-08T02:19:06.712Z,100.00
2023-03-08T02:21:33.420Z,100.00
2023-03-08T02:24:07.526Z,100.00
2023-03-08T02:26:37.193Z,100.00
2023-03-08T02:29:03.826Z,100.00
2023-03-08T02:31:30.538Z,100.00
2023-03-08T02:33:57.188Z,100.00
2023-03-08T02:36:23.833Z,100.00
2023-03-08T02:38:50.530Z,100.00
2023-03-08T02:41:17.295Z,100.00
2023-03-08T02:43:43.851Z,100.00
2023-03-08T02:46:14.553Z,100.00
2023-03-08T02:48:41.179Z,100.00
2023-03-08T02:51:07.861Z,100.00
2023-03-08T02:53:34.483Z,100.00
2023-03-08T02:56:01.141Z,100.00
2023-03-08T02:58:27.792Z,100.00
2023-03-08T03:00:54.398Z,100.00
2023-03-08T03:03:20.962Z,100.00
2023-03-08T03:05:47.549Z,100.00
2023-03-08T03:08:14.267Z,100.00
2023-03-08T03:10:41.743Z,100.00
2023-03-08T03:13:08.760Z,100.00
2023-03-08T03:15:38.306Z,100.00
2023-03-08T03:18:06.057Z,100.00
2023-03-08T03:20:33.761Z,100.00
2023-03-08T03:23:00.350Z,100.00
2023-03-08T03:25:27.243Z,100.00
2023-03-08T03:27:55.375Z,100.00
2023-03-08T03:30:22.080Z,100.00
2023-03-08T03:32:48.679Z,100.00
2023-03-08T03:35:15.308Z,100.00
2023-03-08T03:37:41.961Z,100.00
2023-03-08T03:40:09.443Z,100.00
2023-03-08T03:42:36.136Z,100.00
2023-03-08T03:45:02.882Z,100.00
2023-03-08T03:47:29.492Z,100.00
2023-03-08T03:49:56.095Z,100.00
2023-03-08T03:52:22.746Z,100.00
2023-03-08T03:54:49.350Z,100.00
2023-03-08T03:57:16.003Z,100.00
2023-03-08T03:59:42.580Z,100.00
2023-03-08T04:02:09.292Z,100.00
2023-03-08T04:04:35.925Z,100.00
2023-03-08T04:07:02.796Z,100.00
2023-03-08T04:09:29.411Z,100.00
2023-03-08T04:11:56.485Z,100.00
2023-03-08T04:14:23.165Z,100.00
2023-03-08T04:16:49.736Z,100.00
2023-03-08T04:19:16.359Z,100.00
2023-03-08T04:21:43.075Z,100.00
2023-03-08T04:24:09.839Z,100.00
2023-03-08T04:26:37.834Z,100.00
2023-03-08T04:29:06.213Z,100.00
2023-03-08T04:31:35.169Z,100.00
2023-03-08T04:34:02.838Z,100.00
2023-03-08T04:36:29.538Z,100.00
2023-03-08T04:38:56.402Z,100.00
2023-03-08T04:41:23.491Z,100.00
2023-03-08T04:43:53.128Z,100.00
2023-03-08T04:46:22.090Z,100.00
2023-03-08T04:48:49.286Z,100.00
2023-03-08T04:51:16.758Z,100.00
2023-03-08T04:53:45.393Z,100.00
2023-03-08T04:56:14.188Z,100.00
2023-03-08T04:58:41.460Z,100.00
2023-03-08T05:07:53.936Z,100.00
2023-03-08T05:10:20.553Z,100.00
2023-03-08T05:12:47.241Z,100.00
2023-03-08T05:15:24.783Z,100.00
2023-03-08T05:17:51.671Z,100.00
2023-03-08T05:30:32.495Z,100.00
2023-03-08T05:32:59.421Z,100.00
2023-03-08T05:35:26.207Z,100.00
2023-03-08T05:37:52.782Z,100.00
2023-03-08T05:40:19.535Z,100.00
2023-03-08T05:42:46.187Z,100.00
2023-03-08T05:45:12.850Z,100.00
2023-03-08T05:47:39.512Z,100.00
2023-03-08T05:50:06.480Z,100.00
2023-03-08T05:52:34.678Z,100.00
2023-03-08T05:55:01.600Z,100.00
2023-03-08T05:57:28.626Z,100.00
2023-03-08T05:59:55.250Z,100.00
2023-03-08T06:02:22.090Z,100.00
2023-03-08T06:04:48.856Z,100.00
2023-03-08T06:07:15.521Z,100.00
2023-03-08T06:09:44.966Z,99.60
2023-03-08T06:12:11.778Z,91.24
2023-03-08T06:14:38.378Z,85.84
2023-03-08T06:17:05.014Z,89.82
2023-03-08T06:19:31.708Z,93.62
2023-03-08T06:21:58.402Z,91.86
2023-03-08T06:24:25.088Z,87.25
2023-03-08T06:26:51.792Z,85.71
2023-03-08T06:29:18.374Z,82.83
2023-03-08T06:31:45.028Z,86.24
2023-03-08T06:34:12.914Z,85.72
2023-03-08T06:36:39.778Z,84.83
2023-03-08T06:39:07.195Z,86.24
2023-03-08T06:41:33.930Z,85.27
2023-03-08T06:44:00.568Z,85.49
2023-03-08T06:46:27.613Z,84.77
2023-03-08T06:48:57.533Z,84.36
2023-03-08T06:51:24.118Z,83.43
2023-03-08T06:53:50.704Z,84.00
2023-03-08T06:56:18.030Z,80.30
2023-03-08T06:58:45.109Z,75.95
2023-03-08T07:01:13.876Z,76.44
2023-03-08T07:03:40.694Z,74.96
2023-03-08T07:06:09.655Z,69.08
2023-03-08T07:08:37.679Z,66.95
2023-03-08T07:11:04.487Z,63.50
2023-03-08T07:13:31.079Z,64.04
2023-03-08T07:15:58.125Z,60.50
2023-03-08T07:18:25.057Z,58.34
2023-03-08T07:20:58.691Z,59.95
2023-03-08T07:23:25.891Z,60.09
2023-03-08T07:25:52.527Z,61.64
2023-03-08T07:28:19.210Z,65.26
2023-03-08T07:30:50.492Z,63.80
2023-03-08T07:33:18.213Z,64.27
2023-03-08T07:35:45.154Z,65.47
2023-03-08T07:38:12.275Z,64.13
2023-03-08T07:40:39.238Z,64.84
2023-03-08T07:43:06.367Z,65.61
2023-03-08T07:45:33.189Z,64.93
2023-03-08T07:47:59.810Z,64.17
2023-03-08T07:50:27.309Z,62.89
2023-03-08T07:52:54.005Z,61.43
2023-03-08T07:55:21.482Z,63.13
2023-03-08T07:57:48.124Z,63.27
2023-03-08T08:00:15.000Z,62.16
2023-03-08T08:02:42.283Z,60.97
2023-03-08T08:05:09.393Z,60.42
2023-03-08T08:07:36.162Z,63.38
2023-03-08T08:10:02.854Z,62.63
2023-03-08T08:12:29.442Z,61.55
2023-03-08T08:14:56.272Z,60.61
2023-03-08T08:17:22.947Z,60.58
2023-03-08T08:19:49.678Z,59.96
2023-03-08T08:22:16.324Z,59.79
2023-03-08T08:24:43.171Z,60.59
2023-03-08T08:27:09.805Z,59.22
2023-03-08T08:29:37.641Z,56.89
2023-03-08T08:32:04.884Z,54.93
2023-03-08T08:34:31.678Z,54.23
2023-03-08T08:36:58.333Z,53.52
2023-03-08T08:39:25.021Z,53.38
2023-03-08T08:41:51.708Z,52.60
2023-03-08T08:44:18.351Z,52.26
2023-03-08T08:46:44.963Z,51.43
2023-03-08T08:49:11.569Z,52.40
2023-03-08T08:51:38.314Z,53.61
2023-03-08T08:54:05.104Z,53.85
2023-03-08T08:56:31.824Z,53.68
2023-03-08T08:59:01.585Z,59.22
2023-03-08T09:01:31.792Z,54.76
2023-03-08T09:03:59.563Z,56.67
2023-03-08T09:06:27.526Z,55.84
2023-03-08T09:08:56.814Z,56.49
2023-03-08T09:11:24.489Z,55.18
2023-03-08T09:13:51.357Z,54.39
2023-03-08T09:16:21.005Z,54.93
2023-03-08T09:18:48.141Z,55.31
2023-03-08T09:21:15.842Z,56.99
2023-03-08T09:23:42.869Z,56.34
2023-03-08T09:26:09.818Z,56.84
2023-03-08T09:28:36.978Z,54.90
2023-03-08T09:31:12.162Z,53.54
2023-03-08T09:33:51.945Z,52.47
2023-03-08T09:36:19.586Z,53.21
2023-03-08T09:38:50.464Z,53.24
2023-03-08T09:41:23.223Z,52.95
2023-03-08T09:44:02.059Z,51.21
2023-03-08T09:46:40.838Z,51.45
2023-03-08T09:49:27.433Z,49.61
2023-03-08T09:52:14.048Z,49.48
2023-03-08T09:54:41.070Z,48.74
2023-03-08T09:57:17.008Z,48.90
2023-03-08T09:59:52.752Z,49.04
2023-03-08T10:02:53.396Z,49.60
2023-03-08T10:05:41.069Z,48.97
2023-03-08T10:08:23.880Z,48.23
2023-03-08T10:11:03.475Z,47.91
2023-03-08T10:13:39.980Z,47.68
2023-03-08T10:16:24.795Z,46.63
2023-03-08T10:19:06.977Z,46.08
2023-03-08T10:21:36.757Z,46.07
2023-03-08T10:24:12.216Z,46.58
2023-03-08T10:26:40.469Z,45.05
2023-03-08T10:29:07.114Z,45.88
2023-03-08T10:31:33.863Z,44.49
2023-03-08T10:34:12.842Z,44.55
2023-03-08T10:36:57.457Z,45.03
2023-03-08T10:39:24.089Z,42.70
2023-03-08T10:41:54.473Z,42.83
2023-03-08T10:44:37.036Z,43.88
2023-03-08T10:47:36.547Z,43.16
2023-03-08T10:50:14.079Z,43.97
2023-03-08T10:52:42.198Z,43.90
2023-03-08T10:55:13.218Z,43.14
2023-03-08T10:57:42.951Z,42.18
2023-03-08T11:00:34.607Z,42.54
2023-03-08T11:03:10.502Z,41.91
2023-03-08T11:05:37.382Z,41.78
2023-03-08T11:08:04.852Z,41.69
2023-03-08T11:10:32.400Z,41.36
2023-03-08T11:13:05.826Z,42.20
2023-03-08T11:15:37.439Z,42.08
2023-03-08T11:18:42.798Z,42.23
2023-03-08T11:21:32.501Z,42.57
2023-03-08T11:23:59.147Z,41.61
2023-03-08T11:26:48.704Z,42.54
2023-03-08T11:29:46.570Z,43.38
2023-03-08T11:32:20.865Z,43.70
2023-03-08T11:35:12.414Z,41.34
2023-03-08T11:37:49.254Z,40.07
2023-03-08T11:40:21.863Z,40.90
2023-03-08T11:43:13.292Z,40.90
2023-03-08T11:45:56.060Z,39.84
2023-03-08T11:48:40.967Z,38.89
2023-03-08T11:51:21.134Z,39.30
2023-03-08T11:54:15.989Z,38.95
2023-03-08T11:56:45.348Z,39.51
2023-03-08T11:59:21.116Z,40.67
2023-03-08T12:01:59.159Z,41.39
2023-03-08T12:04:34.506Z,41.83
2023-03-08T12:07:06.152Z,41.32
2023-03-08T12:10:01.998Z,41.53
2023-03-08T12:12:35.067Z,41.55
2023-03-08T12:15:13.855Z,41.40
2023-03-08T12:17:50.571Z,41.97
2023-03-08T12:20:20.239Z,41.54
2023-03-08T12:22:54.768Z,40.67
2023-03-08T12:25:33.184Z,39.97
2023-03-08T12:28:06.396Z,39.20
2023-03-08T12:31:01.858Z,39.19
2023-03-08T12:33:32.377Z,38.74
2023-03-08T12:36:05.675Z,38.58
2023-03-08T12:38:45.751Z,38.29
2023-03-08T12:41:27.649Z,38.82
2023-03-08T12:44:22.178Z,38.92
2023-03-08T12:47:02.851Z,39.07
2023-03-08T12:49:37.383Z,38.74
2023-03-08T12:52:19.389Z,38.80
2023-03-08T12:55:01.517Z,38.72
2023-03-08T12:57:43.036Z,38.71
2023-03-08T13:00:33.457Z,38.41
2023-03-08T13:03:27.332Z,38.60
2023-03-08T13:05:54.130Z,37.72
2023-03-08T13:08:40.027Z,38.51
2023-03-08T13:11:16.135Z,38.20
2023-03-08T13:13:49.732Z,37.51
2023-03-08T13:16:32.654Z,38.40
2023-03-08T13:19:14.747Z,37.84
2023-03-08T13:22:06.931Z,37.91
2023-03-08T13:24:57.251Z,37.15
2023-03-08T13:27:26.858Z,37.35
2023-03-08T13:29:55.008Z,36.98
2023-03-08T13:32:25.076Z,36.94
2023-03-08T13:35:00.269Z,37.50
2023-03-08T13:37:29.107Z,38.46
2023-03-08T13:39:58.185Z,36.63
2023-03-08T13:42:27.098Z,36.16
2023-03-08T13:45:05.893Z,36.92
2023-03-08T13:47:35.167Z,37.33
2023-03-08T13:50:03.006Z,37.04
2023-03-08T13:52:32.857Z,36.83
2023-03-08T13:55:02.398Z,36.44
2023-03-08T13:57:31.947Z,36.29
2023-03-08T14:00:02.284Z,36.43
2023-03-08T14:02:31.347Z,36.97
2023-03-08T14:04:58.904Z,37.72
2023-03-08T14:07:32.316Z,37.92
2023-03-08T14:09:59.651Z,37.18
2023-03-08T14:12:32.961Z,36.74
2023-03-08T14:15:02.598Z,36.48
2023-03-08T14:17:33.542Z,36.12
2023-03-08T14:20:17.142Z,36.05
2023-03-08T14:22:47.597Z,36.42
2023-03-08T14:25:24.550Z,36.49
2023-03-08T14:27:51.866Z,36.67
2023-03-08T14:30:24.817Z,36.97
2023-03-08T14:33:07.018Z,37.12
2023-03-08T14:35:36.188Z,37.83
2023-03-08T14:38:04.017Z,38.48
2023-03-08T14:40:35.715Z,38.98
2023-03-08T14:43:06.407Z,38.85
2023-03-08T14:45:32.982Z,38.93
2023-03-08T14:48:19.966Z,38.71
2023-03-08T14:51:22.154Z,38.63
2023-03-08T14:54:02.676Z,39.39
2023-03-08T14:56:30.784Z,40.21
2023-03-08T14:59:01.213Z,40.66
2023-03-08T15:01:35.709Z,41.11
2023-03-08T15:04:03.303Z,40.59
2023-03-08T15:06:36.283Z,41.14
2023-03-08T15:09:06.288Z,41.13
2023-03-08T15:11:33.045Z,40.93
2023-03-08T15:14:00.296Z,41.46
2023-03-08T15:16:27.453Z,41.60
2023-03-08T15:18:54.170Z,41.37
2023-03-08T15:21:27.161Z,41.56
2023-03-08T15:23:54.412Z,42.42
2023-03-08T15:26:31.868Z,42.04
2023-03-08T15:29:03.277Z,42.76
2023-03-08T15:31:31.629Z,42.86
2023-03-08T15:33:58.622Z,43.00
2023-03-08T15:36:25.483Z,43.44
2023-03-08T15:38:52.365Z,43.77
2023-03-08T15:41:19.022Z,43.72
2023-03-08T15:43:45.831Z,43.83
2023-03-08T15:46:13.948Z,44.29
2023-03-08T15:48:40.811Z,44.20
2023-03-08T15:51:17.245Z,44.57
2023-03-08T15:53:43.924Z,44.90
2023-03-08T15:56:10.552Z,44.47
2023-03-08T15:58:37.141Z,44.02
2023-03-08T16:01:05.541Z,43.94
2023-03-08T16:03:34.911Z,44.30
2023-03-08T16:06:02.611Z,44.17
2023-03-08T16:08:29.719Z,43.99
2023-03-08T16:11:00.291Z,44.08
2023-03-08T16:13:26.975Z,44.34
2023-03-08T16:15:57.287Z,44.43
2023-03-08T16:18:23.872Z,44.63
2023-03-08T16:20:50.689Z,44.89
2023-03-08T16:23:17.342Z,44.87
2023-03-08T16:25:44.070Z,45.36
2023-03-08T16:28:10.833Z,45.07
2023-03-08T16:30:39.358Z,46.34
2023-03-08T16:33:06.155Z,45.49
2023-03-08T16:35:32.777Z,46.83
2023-03-08T16:37:59.356Z,47.37
2023-03-08T16:40:31.134Z,47.31
2023-03-08T16:42:58.280Z,47.40
2023-03-08T16:45:25.167Z,48.11
2023-03-08T16:47:52.212Z,47.77
2023-03-08T16:50:19.022Z,48.12
2023-03-08T16:52:45.920Z,48.18
2023-03-08T16:55:12.569Z,48.51
2023-03-08T16:57:40.380Z,48.37
2023-03-08T17:00:10.401Z,48.08
2023-03-08T17:02:37.438Z,48.48
2023-03-08T17:05:04.908Z,48.56
2023-03-08T17:07:31.516Z,48.76
2023-03-08T17:09:58.533Z,48.82
2023-03-08T17:12:25.373Z,48.39
2023-03-08T17:14:52.502Z,48.66
2023-03-08T17:17:19.115Z,48.60
2023-03-08T17:19:46.411Z,48.82
2023-03-08T17:22:13.184Z,48.98
2023-03-08T17:24:39.825Z,48.62
2023-03-08T17:27:06.497Z,48.76
2023-03-08T17:29:33.104Z,49.29
2023-03-08T17:31:59.813Z,49.40
2023-03-08T17:34:26.525Z,49.83
2023-03-08T17:36:53.602Z,49.71
2023-03-08T17:39:20.736Z,50.31
2023-03-08T17:41:47.774Z,50.66
2023-03-08T17:44:15.014Z,50.41
2023-03-08T17:46:41.772Z,50.12
2023-03-08T17:49:08.694Z,50.07
2023-03-08T17:51:35.342Z,49.81
2023-03-08T17:54:03.234Z,50.11
2023-03-08T17:56:32.041Z,49.93
2023-03-08T17:59:00.761Z,50.05
2023-03-08T18:01:30.005Z,49.76
2023-03-08T18:03:57.860Z,49.29
2023-03-08T18:06:29.012Z,49.60
2023-03-08T18:08:56.878Z,49.57
2023-03-08T18:11:24.507Z,49.64
2023-03-08T18:13:51.502Z,50.16
2023-03-08T18:16:19.877Z,50.59
2023-03-08T18:18:49.573Z,50.43
2023-03-08T18:21:17.955Z,50.80
2023-03-08T18:23:45.386Z,51.10
2023-03-08T18:26:13.855Z,50.53
2023-03-08T18:28:40.842Z,50.73
2023-03-08T18:31:09.320Z,50.43
2023-03-08T18:33:36.730Z,50.55
2023-03-08T18:36:04.398Z,50.68
2023-03-08T18:38:31.559Z,51.34
2023-03-08T18:40:58.677Z,51.79
2023-03-08T18:43:25.427Z,51.93
2023-03-08T18:45:56.659Z,52.64
2023-03-08T18:48:24.460Z,52.66
2023-03-08T18:50:51.891Z,52.97
2023-03-08T18:53:18.583Z,52.82
2023-03-08T18:55:56.516Z,52.93
2023-03-08T18:58:25.158Z,52.62
2023-03-08T19:00:53.002Z,52.21
2023-03-08T19:03:20.225Z,52.12
2023-03-08T19:05:46.972Z,51.77
2023-03-08T19:08:13.637Z,51.48
2023-03-08T19:10:40.379Z,51.44
2023-03-08T19:13:06.980Z,51.26
2023-03-08T19:15:38.186Z,51.32
2023-03-08T19:18:06.875Z,51.68
2023-03-08T19:20:37.976Z,51.05
2023-03-08T19:23:04.933Z,52.05
2023-03-08T19:25:33.407Z,51.21
2023-03-08T19:28:00.138Z,51.61
2023-03-08T19:30:28.557Z,51.66
2023-03-08T19:32:56.493Z,51.62
2023-03-08T19:35:23.411Z,51.64
2023-03-08T19:37:50.089Z,52.10
2023-03-08T19:40:16.930Z,52.68
2023-03-08T19:42:43.674Z,52.54
2023-03-08T19:45:11.136Z,53.92
2023-03-08T19:47:37.798Z,53.56
2023-03-08T19:50:04.723Z,54.86
2023-03-08T19:52:31.387Z,54.90
2023-03-08T19:54:58.770Z,55.96
2023-03-08T19:57:25.586Z,56.78
2023-03-08T19:59:52.366Z,58.02
2023-03-08T20:02:19.216Z,58.57
2023-03-08T20:04:45.878Z,57.91
2023-03-08T20:07:12.638Z,58.07
2023-03-08T20:09:41.530Z,58.63
2023-03-08T20:12:09.068Z,59.48
2023-03-08T20:14:36.712Z,60.26
2023-03-08T20:17:05.312Z,58.87
2023-03-08T20:19:34.117Z,59.31
2023-03-08T20:22:01.233Z,60.08
2023-03-08T20:24:27.980Z,60.97
2023-03-08T20:26:54.584Z,60.47
2023-03-08T20:29:21.345Z,59.02
2023-03-08T20:31:48.444Z,59.03
2023-03-08T20:34:16.072Z,59.37
2023-03-08T20:36:42.826Z,59.36
2023-03-08T20:39:09.511Z,59.13
2023-03-08T20:41:36.126Z,59.77
2023-03-08T20:44:02.962Z,60.11
2023-03-08T20:46:33.303Z,60.20
2023-03-08T20:49:00.779Z,60.61
2023-03-08T20:51:28.344Z,60.89
2023-03-08T20:53:56.598Z,60.19
2023-03-08T20:56:25.438Z,61.68
2023-03-08T20:58:54.792Z,62.73
2023-03-08T21:01:26.524Z,62.48
2023-03-08T21:03:56.026Z,61.83
2023-03-08T21:06:28.426Z,61.25
2023-03-08T21:08:55.295Z,61.82
2023-03-08T21:11:22.644Z,61.23
2023-03-08T21:13:50.330Z,61.29
2023-03-08T21:16:19.705Z,60.36
2023-03-08T21:18:50.954Z,60.29
2023-03-08T21:21:30.358Z,60.77
2023-03-08T21:23:58.929Z,60.67
2023-03-08T21:26:27.284Z,61.18
2023-03-08T21:28:56.724Z,61.80
2023-03-08T21:31:23.701Z,61.60
2023-03-08T21:33:50.850Z,62.12
2023-03-08T21:36:18.403Z,61.89
2023-03-08T21:38:45.549Z,62.48
2023-03-08T21:41:27.683Z,62.31
2023-03-08T21:43:54.454Z,61.90
2023-03-08T21:46:22.132Z,62.17
2023-03-08T21:48:49.506Z,62.14
2023-03-08T21:51:16.775Z,62.29
2023-03-08T21:53:44.215Z,62.06
2023-03-08T21:56:14.086Z,61.33
2023-03-08T21:58:41.255Z,61.17
2023-03-08T22:01:26.923Z,61.03
2023-03-08T22:03:54.610Z,60.88
2023-03-08T22:06:22.695Z,62.41
2023-03-08T22:08:50.183Z,63.89
2023-03-08T22:11:17.998Z,64.65
2023-03-08T22:13:50.183Z,65.07
2023-03-08T22:16:16.920Z,64.73
2023-03-08T22:18:43.771Z,64.11
2023-03-08T22:21:10.526Z,63.63
2023-03-08T22:23:37.139Z,63.40
2023-03-08T22:26:07.164Z,63.13
2023-03-08T22:28:33.752Z,63.42
2023-03-08T22:31:00.395Z,62.79
2023-03-08T22:33:27.132Z,61.45
2023-03-08T22:35:53.850Z,60.50
2023-03-08T22:38:21.057Z,60.39
2023-03-08T22:40:47.791Z,61.46
2023-03-08T22:43:14.670Z,60.26
2023-03-08T22:45:41.382Z,59.82
2023-03-08T22:48:08.597Z,59.46
2023-03-08T22:50:35.280Z,59.13
2023-03-08T22:53:01.939Z,59.01
2023-03-08T22:55:28.649Z,59.02
2023-03-08T22:57:55.222Z,59.24
2023-03-08T23:00:21.884Z,59.67
2023-03-08T23:02:49.142Z,60.54
2023-03-08T23:05:19.171Z,61.92
2023-03-08T23:07:46.152Z,63.94
2023-03-08T23:10:14.377Z,66.46
2023-03-08T23:12:40.999Z,71.52
2023-03-08T23:15:08.872Z,73.27
2023-03-08T23:17:35.579Z,71.89
2023-03-08T23:20:03.983Z,73.94
2023-03-08T23:22:30.579Z,76.51
2023-03-08T23:24:57.250Z,75.75
2023-03-08T23:27:23.841Z,76.06
2023-03-08T23:29:53.607Z,76.16
2023-03-08T23:32:20.662Z,78.32
2023-03-08T23:34:47.531Z,77.34
2023-03-08T23:37:14.235Z,76.83
2023-03-08T23:39:40.783Z,74.83
2023-03-08T23:42:07.443Z,73.95
2023-03-08T23:44:34.137Z,72.88
2023-03-08T23:47:02.371Z,73.37
2023-03-08T23:49:29.060Z,73.23
2023-03-08T23:51:55.708Z,73.70
2023-03-08T23:54:22.344Z,76.88
2023-03-08T23:56:49.025Z,75.02
2023-03-08T23:59:21.467Z,74.72
